createdAt,value
2022-09-23T00:02:52.248Z,1.30
2022-09-23T00:05:19.053Z,1.40
2022-09-23T00:07:45.865Z,1.30
2022-09-23T00:10:12.599Z,1.60
2022-09-23T00:12:39.385Z,1.50
2022-09-23T00:15:06.674Z,1.37
2022-09-23T00:17:33.424Z,1.30
2022-09-23T00:20:00.231Z,1.30
2022-09-23T00:22:26.949Z,1.50
2022-09-23T00:24:53.679Z,1.20
2022-09-23T00:27:20.481Z,1.27
2022-09-23T00:29:48.234Z,1.30
2022-09-23T00:32:14.954Z,1.40
2022-09-23T00:34:44.349Z,1.30
2022-09-23T00:37:11.111Z,1.30
2022-09-23T00:39:37.821Z,1.20
2022-09-23T00:42:04.699Z,1.10
2022-09-23T00:44:54.674Z,1.30
2022-09-23T00:50:36.254Z,1.35
2022-09-23T00:53:10.191Z,1.30
2022-09-23T00:55:45.446Z,1.30
2022-09-23T00:58:15.928Z,1.15
2022-09-23T01:00:42.782Z,1.20
2022-09-23T01:03:09.793Z,1.20
2022-09-23T01:05:36.794Z,1.20
2022-09-23T01:08:04.930Z,1.20
2022-09-23T01:10:54.206Z,1.17
2022-09-23T01:13:41.831Z,1.20
2022-09-23T01:16:46.834Z,1.30
2022-09-23T01:19:13.537Z,1.20
2022-09-23T01:22:07.572Z,1.15
2022-09-23T01:24:56.283Z,1.40
2022-09-23T01:28:00.513Z,1.10
2022-09-23T01:30:55.027Z,1.25
2022-09-23T01:33:21.827Z,1.10
2022-09-23T01:36:23.983Z,1.30
2022-09-23T01:42:05.184Z,1.30
2022-09-23T01:44:48.835Z,1.40
2022-09-23T01:50:20.088Z,1.40
2022-09-23T01:52:48.207Z,1.20
2022-09-23T01:55:36.476Z,1.20
2022-09-23T01:58:15.918Z,1.10
2022-09-23T02:01:01.033Z,1.40
2022-09-23T02:03:32.886Z,1.30
2022-09-23T02:09:16.345Z,1.20
2022-09-23T02:11:47.969Z,1.30
2022-09-23T02:14:25.692Z,1.27
2022-09-23T02:20:01.778Z,1.30
2022-09-23T02:22:32.561Z,1.20
2022-09-23T02:24:59.366Z,1.20
2022-09-23T02:30:24.288Z,1.40
2022-09-23T02:33:14.554Z,1.30
2022-09-23T02:38:28.778Z,1.42
2022-09-23T02:44:09.944Z,1.30
2022-09-23T02:46:37.113Z,1.30
2022-09-23T02:49:11.071Z,1.65
2022-09-23T02:54:28.868Z,1.30
2022-09-23T02:59:42.385Z,1.52
2022-09-23T03:08:28.895Z,1.60
2022-09-23T03:11:10.325Z,1.52
2022-09-23T03:13:39.785Z,1.60
2022-09-23T03:16:34.176Z,1.40
2022-09-23T03:19:19.241Z,1.60
2022-09-23T03:21:54.607Z,1.58
2022-09-23T03:27:16.658Z,1.40
2022-09-23T03:29:49.732Z,1.30
2022-09-23T03:32:21.757Z,1.40
2022-09-23T03:37:41.060Z,1.60
2022-09-23T03:40:20.173Z,1.60
2022-09-23T03:42:47.107Z,1.40
2022-09-23T03:45:17.112Z,1.40
2022-09-23T03:47:44.279Z,1.48
2022-09-23T03:50:11.737Z,1.50
2022-09-23T03:52:38.473Z,1.48
2022-09-23T03:55:06.594Z,1.52
2022-09-23T03:57:33.371Z,1.60
2022-09-23T04:00:00.110Z,1.40
2022-09-23T04:05:13.949Z,1.40
2022-09-23T04:10:27.577Z,1.50
2022-09-23T04:12:54.296Z,1.30
2022-09-23T04:15:21.029Z,1.40
2022-09-23T04:17:47.761Z,1.60
2022-09-23T04:20:14.561Z,1.40
2022-09-23T04:22:41.285Z,1.30
2022-09-23T04:25:08.547Z,1.40
2022-09-23T04:27:37.724Z,1.60
2022-09-23T04:30:05.127Z,1.50
2022-09-23T04:32:31.904Z,1.40
2022-09-23T04:34:58.622Z,1.70
2022-09-23T04:37:25.336Z,1.70
2022-09-23T04:39:52.060Z,1.30
2022-09-23T04:42:18.773Z,1.50
2022-09-23T04:44:45.489Z,1.60
2022-09-23T04:47:12.219Z,1.45
2022-09-23T04:49:38.965Z,1.50
2022-09-23T04:54:32.441Z,1.40
2022-09-23T04:56:59.436Z,1.50
2022-09-23T05:02:12.947Z,1.70
2022-09-23T05:04:39.718Z,1.60
2022-09-23T05:07:06.514Z,1.50
2022-09-23T05:09:33.259Z,1.30
2022-09-23T05:12:00.420Z,1.48
2022-09-23T05:14:27.147Z,1.40
2022-09-23T05:16:53.848Z,1.70
2022-09-23T05:19:20.553Z,1.83
2022-09-23T05:21:47.310Z,1.40
2022-09-23T05:24:14.130Z,1.42
2022-09-23T05:26:41.051Z,1.63
2022-09-23T05:29:08.095Z,1.50
2022-09-23T05:31:35.010Z,1.30
2022-09-23T05:34:04.393Z,1.50
2022-09-23T05:36:37.982Z,2.00
2022-09-23T05:39:06.489Z,2.30
2022-09-23T05:41:33.308Z,1.50
2022-09-23T05:44:00.118Z,1.50
2022-09-23T05:46:30.075Z,1.70
2022-09-23T05:51:44.907Z,1.50
2022-09-23T05:54:11.624Z,1.50
2022-09-23T05:56:38.414Z,1.60
2022-09-23T05:59:05.840Z,1.50
2022-09-23T06:01:35.215Z,1.70
2022-09-23T06:04:04.510Z,1.60
2022-09-23T06:06:34.112Z,1.70
2022-09-23T06:09:01.605Z,1.80
2022-09-23T06:11:32.966Z,1.55
2022-09-23T06:14:00.531Z,1.70
2022-09-23T06:19:15.710Z,1.40
2022-09-23T06:24:31.606Z,1.45
2022-09-23T06:29:45.093Z,1.50
2022-09-23T06:32:11.814Z,1.60
2022-09-23T06:34:49.111Z,1.53
2022-09-23T06:37:20.442Z,1.50
2022-09-23T06:39:47.671Z,1.60
2022-09-23T06:42:14.539Z,1.65
2022-09-23T06:44:41.249Z,1.70
2022-09-23T06:47:08.087Z,1.80
2022-09-23T06:49:34.881Z,1.70
2022-09-23T06:52:01.780Z,1.60
2022-09-23T06:54:28.506Z,1.50
2022-09-23T06:56:55.700Z,1.52
2022-09-23T06:59:22.406Z,1.42
2022-09-23T07:01:49.209Z,1.67
2022-09-23T07:04:16.083Z,1.70
2022-09-23T07:06:42.835Z,1.67
2022-09-23T07:09:09.572Z,1.90
2022-09-23T07:11:36.473Z,2.00
2022-09-23T07:14:03.307Z,2.40
2022-09-23T07:19:17.010Z,2.65
2022-09-23T07:21:43.753Z,2.70
2022-09-23T07:24:10.586Z,1.88
2022-09-23T07:26:38.612Z,2.40
2022-09-23T07:29:06.898Z,1.80
2022-09-23T07:31:39.800Z,1.92
2022-09-23T07:34:08.826Z,2.00
2022-09-23T07:36:35.622Z,1.90
2022-09-23T07:39:02.450Z,2.10
2022-09-23T07:41:30.752Z,2.08
2022-09-23T07:43:58.569Z,2.20
2022-09-23T07:46:27.640Z,2.20
2022-09-23T07:48:54.470Z,1.85
2022-09-23T07:51:24.201Z,2.85
2022-09-23T07:53:52.716Z,2.65
2022-09-23T07:56:21.316Z,1.80
2022-09-23T07:58:48.857Z,1.80
2022-09-23T08:01:15.620Z,1.90
2022-09-23T08:03:42.343Z,1.88
2022-09-23T08:06:11.716Z,2.03
2022-09-23T08:08:40.420Z,2.10
2022-09-23T08:11:08.909Z,1.90
2022-09-23T08:13:35.855Z,1.90
2022-09-23T08:16:03.028Z,1.90
2022-09-23T08:18:29.950Z,1.80
2022-09-23T08:20:56.688Z,1.80
2022-09-23T08:23:23.442Z,1.67
2022-09-23T08:25:59.426Z,1.70
2022-09-23T08:28:26.788Z,1.90
2022-09-23T08:30:53.890Z,1.90
2022-09-23T08:33:23.377Z,1.90
2022-09-23T08:35:51.529Z,1.80
2022-09-23T08:41:53.863Z,2.00
2022-09-23T08:47:41.993Z,1.80
2022-09-23T08:50:17.031Z,1.70
2022-09-23T08:52:49.476Z,1.80
2022-09-23T08:55:17.185Z,1.80
2022-09-23T08:58:23.577Z,1.63
2022-09-23T09:00:44.810Z,2.00
2022-09-23T09:03:21.370Z,1.98
2022-09-23T09:05:54.255Z,1.77
2022-09-23T09:07:40.350Z,0
2022-09-23T09:08:30.934Z,1.90
2022-09-23T09:10:58.554Z,1.90
2022-09-23T09:13:41.044Z,1.60
2022-09-23T09:16:48.370Z,1.48
2022-09-23T09:22:19.850Z,1.90
2022-09-23T09:24:49.520Z,1.70
2022-09-23T09:27:16.249Z,1.80
2022-09-23T09:29:49.541Z,1.60
2022-09-23T09:32:40.495Z,1.50
2022-09-23T09:35:23.905Z,1.70
2022-09-23T09:37:53.253Z,1.70
2022-09-23T09:40:20.547Z,1.55
2022-09-23T09:42:50.043Z,1.50
2022-09-23T09:45:57.259Z,1.50
2022-09-23T09:48:39.779Z,1.55
2022-09-23T09:51:24.565Z,1.50
2022-09-23T09:53:51.632Z,1.60
2022-09-23T09:56:25.424Z,1.30
2022-09-23T09:59:02.042Z,1.50
2022-09-23T10:01:33.766Z,1.40
2022-09-23T10:04:29.713Z,1.60
2022-09-23T10:07:08.614Z,1.50
2022-09-23T10:09:38.664Z,1.40
2022-09-23T10:12:22.976Z,1.40
2022-09-23T10:17:39.485Z,1.60
2022-09-23T10:20:14.857Z,1.70
2022-09-23T10:22:42.445Z,1.40
2022-09-23T10:25:17.066Z,1.60
2022-09-23T10:27:43.768Z,1.90
2022-09-23T10:30:13.772Z,1.40
2022-09-23T10:35:31.427Z,1.38
2022-09-23T10:40:46.689Z,1.30
2022-09-23T10:43:41.715Z,1.30
2022-09-23T10:46:16.638Z,1.20
2022-09-23T10:49:15.941Z,1.20
2022-09-23T10:52:13.405Z,1.20
2022-09-23T10:55:17.602Z,1.20
2022-09-23T10:57:01.336Z,0
2022-09-23T11:04:17.582Z,1.30
2022-09-23T11:07:10.923Z,1.10
2022-09-23T11:09:58.781Z,1.88
2022-09-23T11:12:50.106Z,1.23
2022-09-23T11:15:32.921Z,1.38
2022-09-23T11:18:33.765Z,1.50
2022-09-23T11:24:49.581Z,1.30
2022-09-23T11:27:37.085Z,1.20
2022-09-23T11:30:19.170Z,1.10
2022-09-23T11:33:05.779Z,1.00
2022-09-23T11:35:53.359Z,1.00
2022-09-23T11:41:19.779Z,1.20
2022-09-23T11:43:51.499Z,1.45
2022-09-23T11:46:31.404Z,1.15
2022-09-23T11:49:12.275Z,1.25
2022-09-23T11:51:46.085Z,1.30
2022-09-23T11:54:21.703Z,1.20
2022-09-23T11:56:50.636Z,0
2022-09-23T11:59:41.141Z,1.10
2022-09-23T12:02:30.577Z,1.30
2022-09-23T12:08:10.333Z,1.00
2022-09-23T12:10:46.291Z,0.90
2022-09-23T12:13:20.308Z,1.20
2022-09-23T12:13:33.078Z,0
2022-09-23T12:16:22.429Z,1.00
2022-09-23T12:19:03.669Z,1.00
2022-09-23T12:21:51.293Z,1.10
2022-09-23T12:24:47.013Z,1.20
2022-09-23T12:27:39.452Z,1.10
2022-09-23T12:30:20.878Z,1.23
2022-09-23T12:32:47.920Z,0.93
2022-09-23T12:35:31.337Z,1.00
2022-09-23T12:38:00.558Z,1.20
2022-09-23T12:40:35.312Z,1.20
2022-09-23T12:43:02.752Z,1.50
2022-09-23T12:45:29.415Z,1.10
2022-09-23T12:47:56.217Z,1.13
2022-09-23T12:50:50.871Z,1.30
2022-09-23T12:53:56.009Z,1.30
2022-09-23T12:56:28.496Z,1.20
2022-09-23T12:59:20.577Z,1.30
2022-09-23T13:01:47.934Z,1.98
2022-09-23T13:04:55.770Z,1.20
2022-09-23T13:13:36.795Z,1.00
2022-09-23T13:16:22.472Z,1.10
2022-09-23T13:18:53.375Z,1.40
2022-09-23T13:21:42.854Z,1.20
2022-09-23T13:24:24.885Z,1.90
2022-09-23T13:26:56.641Z,1.45
2022-09-23T13:29:41.080Z,1.10
2022-09-23T13:32:13.214Z,1.10
2022-09-23T13:34:40.924Z,1.10
2022-09-23T13:37:29.546Z,1.20
2022-09-23T13:40:15.797Z,1.30
2022-09-23T13:42:47.386Z,1.17
2022-09-23T13:48:14.600Z,1.13
2022-09-23T13:50:48.904Z,1.40
2022-09-23T13:53:27.798Z,1.50
2022-09-23T13:56:13.293Z,1.48
2022-09-23T13:58:41.039Z,1.20
2022-09-23T14:01:22.534Z,1.10
2022-09-23T14:03:49.494Z,1.60
2022-09-23T14:06:16.297Z,1.15
2022-09-23T14:08:48.036Z,1.00
2022-09-23T14:11:17.106Z,1.40
2022-09-23T14:13:45.472Z,1.20
2022-09-23T14:16:14.238Z,1.27
2022-09-23T14:18:47.618Z,1.10
2022-09-23T14:21:31.249Z,1.20
2022-09-23T14:24:13.226Z,1.02
2022-09-23T14:26:42.449Z,1.02
2022-09-23T14:29:15.723Z,1.10
2022-09-23T14:32:04.059Z,1.30
2022-09-23T14:37:49.748Z,1.50
2022-09-23T14:40:20.717Z,1.25
2022-09-23T14:42:58.688Z,1.45
2022-09-23T14:45:32.165Z,1.10
2022-09-23T14:48:02.479Z,1.20
2022-09-23T14:50:31.145Z,1.10
2022-09-23T14:52:57.926Z,1.10
2022-09-23T14:55:28.850Z,1.40
2022-09-23T15:00:53.774Z,1.10
2022-09-23T15:06:08.948Z,1.58
2022-09-23T15:11:23.057Z,1.98
2022-09-23T15:16:40.178Z,2.05
2022-09-23T15:21:58.899Z,1.50
2022-09-23T15:24:46.018Z,1.10
2022-09-23T15:30:20.056Z,1.40
2022-09-23T15:35:33.857Z,1.30
2022-09-23T15:38:01.513Z,1.50
2022-09-23T15:40:33.809Z,1.30
2022-09-23T15:43:07.056Z,1.20
2022-09-23T15:45:41.720Z,1.50
2022-09-23T15:48:13.383Z,2.20
2022-09-23T15:50:40.867Z,4.57
2022-09-23T15:53:07.932Z,1.90
2022-09-23T15:55:34.730Z,1.40
2022-09-23T15:58:01.486Z,1.55
2022-09-23T16:00:28.265Z,1.30
2022-09-23T16:02:54.995Z,1.20
2022-09-23T16:08:24.329Z,1.30
2022-09-23T16:13:38.097Z,1.50
2022-09-23T16:16:05.064Z,1.50
2022-09-23T16:18:31.829Z,1.20
2022-09-23T16:20:58.577Z,1.48
2022-09-23T16:26:23.632Z,1.50
2022-09-23T16:28:52.923Z,3.00
2022-09-23T16:31:20.312Z,2.50
2022-09-23T16:33:48.764Z,1.90
2022-09-23T16:36:38.267Z,2.30
2022-09-23T16:39:08.644Z,2.10
2022-09-23T16:41:35.400Z,2.00
2022-09-23T16:44:04.222Z,2.40
2022-09-23T16:46:31.617Z,2.38
2022-09-23T16:48:59.744Z,2.10
2022-09-23T16:51:31.292Z,1.80
2022-09-23T16:53:58.991Z,1.90
2022-09-23T16:56:28.959Z,2.00
2022-09-23T16:58:56.780Z,1.90
2022-09-23T17:03:55.524Z,3.00
2022-09-23T17:06:22.222Z,1.70
2022-09-23T17:11:35.631Z,2.20
2022-09-23T17:14:02.368Z,2.25
2022-09-23T17:16:32.237Z,2.33
2022-09-23T17:18:59.652Z,2.20
2022-09-23T17:21:27.527Z,2.30
2022-09-23T17:23:55.224Z,2.17
2022-09-23T17:26:23.884Z,2.10
2022-09-23T17:28:52.018Z,2.20
2022-09-23T17:31:18.832Z,3.97
2022-09-23T17:33:45.631Z,3.80
2022-09-23T17:36:13.889Z,2.72
2022-09-23T17:38:43.343Z,2.50
2022-09-23T17:41:10.097Z,2.50
2022-09-23T17:43:37.768Z,2.70
2022-09-23T17:46:07.770Z,2.80
2022-09-23T17:48:36.555Z,2.70
2022-09-23T17:51:09.917Z,2.60
2022-09-23T17:53:38.713Z,2.20
2022-09-23T17:56:08.655Z,2.60
2022-09-23T18:01:26.048Z,2.60
2022-09-23T18:03:57.398Z,3.30
2022-09-23T18:06:27.278Z,5.40
2022-09-23T18:08:54.058Z,3.80
2022-09-23T18:14:14.765Z,9.87
2022-09-23T18:16:43.489Z,3.65
2022-09-23T18:19:12.673Z,3.60
2022-09-23T18:21:41.542Z,2.70
2022-09-23T18:24:34.632Z,0
2022-09-23T18:26:56.094Z,2.70
2022-09-23T18:29:22.794Z,2.97
2022-09-23T18:31:49.605Z,6.07
2022-09-23T18:34:16.787Z,5.55
2022-09-23T18:36:44.397Z,6.47
2022-09-23T18:39:11.220Z,3.90
2022-09-23T18:44:24.991Z,3.00
2022-09-23T18:46:54.338Z,3.60
2022-09-23T18:49:21.111Z,4.00
2022-09-23T18:51:55.870Z,4.43
2022-09-23T18:57:15.111Z,5.18
2022-09-23T19:02:28.603Z,5.50
2022-09-23T19:07:23.614Z,8.38
2022-09-23T19:09:50.350Z,6.80
2022-09-23T19:15:07.315Z,5.70
2022-09-23T19:20:20.677Z,5.90
2022-09-23T19:25:36.220Z,5.20
2022-09-23T19:30:49.648Z,4.20
2022-09-23T19:33:16.389Z,3.97
2022-09-23T19:35:51.145Z,3.60
2022-09-23T19:38:19.334Z,3.50
2022-09-23T19:43:34.506Z,3.60
2022-09-23T19:48:48.050Z,3.60
2022-09-23T19:53:28.624Z,0
2022-09-23T19:54:03.420Z,4.00
2022-09-23T19:56:31.618Z,3.83
2022-09-23T19:58:59.237Z,4.40
2022-09-23T20:01:27.966Z,4.15
2022-09-23T20:03:54.945Z,4.60
2022-09-23T20:06:22.343Z,4.68
2022-09-23T20:08:49.670Z,4.93
2022-09-23T20:11:19.523Z,4.60
2022-09-23T20:13:47.937Z,5.00
2022-09-23T20:16:17.427Z,4.95
2022-09-23T20:18:45.194Z,4.90
2022-09-23T20:21:14.751Z,4.80
2022-09-23T20:23:42.466Z,5.00
2022-09-23T20:28:56.934Z,5.17
2022-09-23T20:33:54.549Z,5.90
2022-09-23T20:36:21.284Z,8.50
2022-09-23T20:38:48.080Z,9.50
2022-09-23T20:41:14.782Z,7.18
2022-09-23T20:43:41.496Z,6.38
2022-09-23T20:46:08.906Z,6.32
2022-09-23T20:48:35.641Z,6.00
2022-09-23T20:51:04.045Z,5.95
2022-09-23T20:56:18.426Z,5.70
2022-09-23T20:58:45.161Z,5.30
2022-09-23T21:01:12.152Z,5.00
2022-09-23T21:03:41.375Z,4.70
2022-09-23T21:08:56.262Z,4.60
2022-09-23T21:14:10.161Z,4.18
2022-09-23T21:16:36.994Z,4.30
2022-09-23T21:19:03.852Z,3.80
2022-09-23T21:21:30.543Z,4.10
2022-09-23T21:24:17.503Z,3.90
2022-09-23T21:25:32.382Z,0
2022-09-23T21:26:45.236Z,4.10
2022-09-23T21:29:11.969Z,4.32
2022-09-23T21:31:38.734Z,4.22
2022-09-23T21:36:54.560Z,4.40
2022-09-23T21:42:07.922Z,4.07
2022-09-23T21:44:34.668Z,4.40
2022-09-23T21:47:01.538Z,4.40
2022-09-23T21:49:28.341Z,4.70
2022-09-23T21:51:55.023Z,4.85
2022-09-23T21:54:21.750Z,4.33
2022-09-23T21:56:48.480Z,4.47
2022-09-23T21:59:15.226Z,4.35
2022-09-23T22:01:43.635Z,4.50
2022-09-23T22:04:19.336Z,4.40
2022-09-23T22:09:33.600Z,4.78
2022-09-23T22:14:47.005Z,4.83
2022-09-23T22:19:45.935Z,4.60
2022-09-23T22:22:14.829Z,4.60
2022-09-23T22:24:43.036Z,3.83
2022-09-23T22:27:10.952Z,4.00
2022-09-23T22:29:37.683Z,3.88
2022-09-23T22:32:09.750Z,3.70
2022-09-23T22:34:49.686Z,3.70
2022-09-23T22:37:21.863Z,3.60
2022-09-23T22:39:48.661Z,3.80
2022-09-23T22:42:15.381Z,3.55
2022-09-23T22:44:42.523Z,3.70
2022-09-23T22:47:10.429Z,3.45
2022-09-23T22:49:37.267Z,3.40
2022-09-23T22:52:06.373Z,3.30
2022-09-23T22:54:34.194Z,3.40
2022-09-23T22:57:03.792Z,3.10
2022-09-23T22:59:33.651Z,3.00
2022-09-23T23:02:01.473Z,3.00
2022-09-23T23:04:29.072Z,2.80
2022-09-23T23:06:56.968Z,3.20
2022-09-23T23:09:23.841Z,3.40
2022-09-23T23:11:50.724Z,3.70
2022-09-23T23:14:18.913Z,3.30
2022-09-23T23:16:46.567Z,3.20
2022-09-23T23:19:16.490Z,3.40
2022-09-23T23:21:44.435Z,3.10
2022-09-23T23:24:16.214Z,3.50
2022-09-23T23:26:42.988Z,3.30
2022-09-23T23:28:19.228Z,0
2022-09-23T23:29:11.836Z,3.20
2022-09-23T23:31:38.949Z,3.30
2022-09-23T23:34:06.339Z,3.20
2022-09-23T23:36:33.095Z,3.10
2022-09-23T23:38:59.799Z,3.15
2022-09-23T23:41:27.910Z,3.20
2022-09-23T23:44:00.647Z,3.50
2022-09-23T23:46:30.455Z,3.10
2022-09-23T23:48:58.516Z,3.70
2022-09-23T23:51:27.047Z,3.40
2022-09-23T23:53:55.114Z,3.00
2022-09-23T23:56:24.466Z,3.70
